Time;durP1;ratioP1;P1;durP2;ratioP2;P2;SDS_P1;SDS_P2;PMS_P1;PMS_P2;Temp;Humidity;BMP_temperature;BMP_pressure;BME280_temperature;BME280_humidity;BME280_pressure;Samples;Min_cycle;Max_cycle;Signal;HPM_P1;HPM_P2
2023/05/26 00:02:15;;;;;;;6.78;2.85;;;18.80;73.30;;;;;;5014431;28;20054;-33
2023/05/26 00:04:43;;;;;;;8.00;2.90;;;19.30;73.90;;;;;;5014571;28;20129;-34
2023/05/26 00:07:09;;;;;;;7.13;2.95;;;19.80;73.90;;;;;;5014484;28;20053;-34
2023/05/26 00:09:37;;;;;;;6.07;2.50;;;19.00;55.40;;;;;;5013903;28;20056;-33
2023/05/26 00:12:05;;;;;;;8.20;2.80;;;;;;;;;;5014205;28;20137;-32
2023/05/26 00:14:33;;;;;;;5.90;2.50;;;;;;;;;;5014342;28;20129;-32
2023/05/26 00:16:59;;;;;;;6.60;2.95;;;19.70;74.20;;;;;;5014499;28;20133;-33
2023/05/26 00:19:26;;;;;;;5.95;2.78;;;19.20;71.10;;;;;;5013845;28;20107;-33
2023/05/26 00:21:53;;;;;;;6.75;2.85;;;19.10;60.50;;;;;;5014366;28;20439;-34
2023/05/26 00:24:20;;;;;;;7.03;3.20;;;19.00;73.40;;;;;;5013406;28;20400;-33
2023/05/26 00:26:48;;;;;;;4.85;2.33;;;19.00;55.40;;;;;;5014292;28;20147;-33
2023/05/26 00:29:15;;;;;;;8.40;2.60;;;;;;;;;;5014167;28;20129;-33
2023/05/26 00:31:42;;;;;;;6.05;3.00;;;19.10;68.80;;;;;;5014132;28;20136;-33
2023/05/26 00:34:08;;;;;;;6.55;2.35;;;18.60;60.80;;;;;;5013669;28;20083;-33
2023/05/26 00:36:36;;;;;;;7.43;2.85;;;18.90;62.70;;;;;;5013272;28;20042;-33
2023/05/26 00:39:02;;;;;;;5.47;2.50;;;18.40;73.20;;;;;;5013583;28;20054;-33
2023/05/26 00:41:29;;;;;;;6.30;2.42;;;;;;;;;;5013722;28;20072;-32
2023/05/26 00:43:57;;;;;;;6.72;2.58;;;19.30;74.00;;;;;;5013765;28;20128;-33
2023/05/26 00:46:24;;;;;;;5.38;2.33;;;19.20;73.60;;;;;;5013639;28;20050;-34
2023/05/26 00:48:51;;;;;;;5.05;2.45;;;19.90;74.00;;;;;;5013526;28;20235;-33
2023/05/26 00:51:18;;;;;;;5.43;2.53;;;;;;;;;;5013093;28;20060;-33
2023/05/26 00:53:45;;;;;;;6.78;2.80;;;18.90;74.50;;;;;;5013586;28;20052;-34
2023/05/26 00:56:12;;;;;;;7.43;2.40;;;;;;;;;;5013712;28;20133;-33
2023/05/26 00:58:39;;;;;;;6.65;2.92;;;;;;;;;;5013443;28;20060;-34
2023/05/26 01:01:07;;;;;;;7.07;2.50;;;18.90;55.30;;;;;;5013321;28;20054;-32
2023/05/26 01:03:35;;;;;;;6.38;2.67;;;;;;;;;;5013127;28;20133;-32
2023/05/26 01:06:01;;;;;;;4.72;2.45;;;18.40;73.30;;;;;;4995222;28;20392;-34
2023/05/26 01:08:28;;;;;;;8.05;2.55;;;;;;;;;;5013404;28;20053;-33
2023/05/26 01:10:56;;;;;;;6.03;2.40;;;19.20;73.80;;;;;;5012825;28;20052;-34
2023/05/26 01:13:25;;;;;;;4.53;2.13;;;18.90;68.30;;;;;;5013149;28;20050;-34
2023/05/26 01:15:55;;;;;;;6.45;2.65;;;18.80;55.30;;;;;;5013012;28;20136;-32
2023/05/26 01:18:25;;;;;;;5.43;2.35;;;18.20;73.50;;;;;;5012914;28;20133;-33
2023/05/26 01:20:56;;;;;;;6.57;2.35;;;19.20;73.80;;;;;;5012759;28;20064;-33
2023/05/26 01:23:40;;;;;;;6.95;3.00;;;18.90;68.20;;;;;;5012812;28;20077;-33
2023/05/26 01:26:32;;;;;;;6.28;2.47;;;18.80;55.30;;;;;;5012921;28;20056;-33
2023/05/26 01:29:02;;;;;;;6.55;2.55;;;18.80;61.40;;;;;;5012811;28;20125;-34
2023/05/26 01:31:33;;;;;;;6.90;2.30;;;;;;;;;;5012784;28;20053;-33
2023/05/26 01:34:00;;;;;;;5.88;2.60;;;18.80;73.50;;;;;;5012893;28;20062;-33
2023/05/26 01:36:28;;;;;;;4.65;2.42;;;18.80;73.90;;;;;;5012316;28;20056;-33
2023/05/26 01:38:54;;;;;;;5.28;2.20;;;19.30;68.60;;;;;;5012795;28;20133;-34
2023/05/26 01:41:26;;;;;;;5.80;2.45;;;18.50;60.60;;;;;;5012685;28;20054;-33
2023/05/26 01:43:57;;;;;;;7.38;2.60;;;18.90;73.70;;;;;;5012571;28;20054;-34
2023/05/26 01:46:27;;;;;;;6.18;2.40;;;19.20;73.50;;;;;;5012363;28;20052;-34
2023/05/26 01:48:55;;;;;;;5.05;2.25;;;18.30;69.30;;;;;;5012046;28;20487;-33
2023/05/26 01:51:22;;;;;;;6.53;2.85;;;19.10;62.60;;;;;;5012547;28;20120;-33
2023/05/26 01:53:49;;;;;;;5.97;2.33;;;18.90;73.50;;;;;;5011794;28;20527;-33
2023/05/26 01:56:16;;;;;;;7.65;2.80;;;18.50;69.80;;;;;;5012349;28;20049;-33
2023/05/26 01:58:43;;;;;;;5.43;2.25;;;17.70;61.50;;;;;;5012273;28;20057;-34
2023/05/26 02:01:11;;;;;;;5.57;2.50;;;;;;;;;;5012289;28;20156;-34
2023/05/26 02:03:41;;;;;;;5.35;2.13;;;18.70;55.30;;;;;;5012077;28;20049;-33
2023/05/26 02:06:08;;;;;;;7.28;2.50;;;18.80;65.80;;;;;;5012069;28;20046;-34
2023/05/26 02:08:35;;;;;;;5.05;2.45;;;18.10;73.20;;;;;;5012473;28;20391;-34
2023/05/26 02:11:02;;;;;;;7.25;2.63;;;19.10;63.80;;;;;;5012086;28;20053;-33
2023/05/26 02:13:29;;;;;;;7.15;2.50;;;17.70;73.30;;;;;;5011789;28;20054;-34
2023/05/26 02:15:56;;;;;;;7.38;2.30;;;18.40;60.30;;;;;;5012253;28;20631;-33
2023/05/26 02:18:24;;;;;;;5.60;2.35;;;18.70;63.20;;;;;;5012141;28;20077;-33
2023/05/26 02:20:53;;;;;;;7.05;2.53;;;18.60;73.90;;;;;;5011714;28;20050;-33
2023/05/26 02:23:20;;;;;;;4.93;2.15;;;18.70;73.60;;;;;;5010790;28;20137;-34
2023/05/26 02:25:47;;;;;;;6.63;2.50;;;18.70;59.90;;;;;;5012026;28;20499;-31
2023/05/26 02:28:13;;;;;;;5.47;2.45;;;17.90;73.10;;;;;;5012035;28;20050;-31
2023/05/26 02:30:40;;;;;;;4.88;2.38;;;18.30;73.40;;;;;;5012120;28;20056;-31
2023/05/26 02:33:07;;;;;;;7.35;2.85;;;18.60;60.60;;;;;;5011453;28;20412;-31
2023/05/26 02:35:35;;;;;;;6.82;2.47;;;19.30;74.20;;;;;;5011580;28;20053;-31
2023/05/26 02:38:03;;;;;;;6.38;2.58;;;18.50;73.90;;;;;;5011600;28;20133;-31
2023/05/26 02:40:30;;;;;;;7.10;2.90;;;18.00;73.60;;;;;;5011720;28;20491;-31
2023/05/26 02:42:57;;;;;;;5.32;2.33;;;;;;;;;;5011480;28;20140;-31
2023/05/26 02:45:24;;;;;;;6.03;2.30;;;;;;;;;;5011720;28;20132;-31
2023/05/26 02:47:51;;;;;;;5.72;2.55;;;19.10;74.20;;;;;;5011650;28;20137;-31
2023/05/26 02:50:18;;;;;;;6.15;2.53;;;19.10;65.60;;;;;;5011468;28;20072;-31
2023/05/26 02:52:44;;;;;;;5.85;2.40;;;18.80;57.90;;;;;;5011571;28;20495;-31
2023/05/26 02:55:12;;;;;;;6.13;2.22;;;19.50;74.30;;;;;;5011652;28;20076;-31
2023/05/26 02:57:39;;;;;;;5.90;2.25;;;18.40;74.10;;;;;;5011842;28;20049;-31
2023/05/26 03:00:10;;;;;;;5.82;2.30;;;18.50;65.10;;;;;;5011803;28;20067;-31
2023/05/26 03:02:37;;;;;;;5.20;2.17;;;19.40;74.00;;;;;;5011056;28;20085;-31
2023/05/26 03:05:05;;;;;;;5.88;2.20;;;18.80;70.50;;;;;;5011808;28;20132;-31
2023/05/26 03:07:32;;;;;;;6.43;2.40;;;;;;;;;;5011654;28;20117;-33
2023/05/26 03:09:59;;;;;;;5.22;2.13;;;18.90;73.20;;;;;;5011599;28;20052;-31
2023/05/26 03:12:27;;;;;;;5.88;2.40;;;19.30;73.80;;;;;;5011596;28;20060;-31
2023/05/26 03:14:54;;;;;;;7.20;2.53;;;19.00;73.30;;;;;;5011408;28;20050;-31
2023/05/26 03:17:21;;;;;;;6.15;2.30;;;18.80;73.10;;;;;;5011433;28;20133;-31
2023/05/26 03:19:48;;;;;;;5.20;2.20;;;18.80;73.50;;;;;;5011203;28;20046;-31
2023/05/26 03:22:14;;;;;;;5.88;2.13;;;18.10;57.60;;;;;;5011276;28;20053;-32
2023/05/26 03:24:41;;;;;;;6.60;2.45;;;18.60;67.70;;;;;;4994133;28;20069;-31
2023/05/26 03:27:08;;;;;;;4.38;2.30;;;19.20;73.10;;;;;;5011099;28;20145;-31
2023/05/26 03:29:36;;;;;;;4.63;2.13;;;19.40;73.40;;;;;;5011213;28;20050;-31
2023/05/26 03:32:04;;;;;;;5.78;2.33;;;;;;;;;;4991881;28;20056;-35
2023/05/26 03:34:31;;;;;;;5.68;2.38;;;;;;;;;;4993132;28;21677;-32
2023/05/26 03:36:57;;;;;;;4.88;2.20;;;19.00;73.10;;;;;;5003831;28;20045;-31
2023/05/26 03:39:24;;;;;;;3.58;1.95;;;;;;;;;;5014933;28;20136;-31
2023/05/26 03:41:51;;;;;;;5.45;2.10;;;19.70;67.70;;;;;;5014882;28;20133;-31
2023/05/26 03:44:19;;;;;;;6.85;2.20;;;20.10;73.60;;;;;;5014659;28;20057;-31
2023/05/26 03:46:47;;;;;;;4.63;2.20;;;19.20;54.40;;;;;;5014171;28;20116;-31
2023/05/26 03:49:14;;;;;;;5.78;2.30;;;19.40;72.70;;;;;;5014617;28;20124;-31
2023/05/26 03:51:40;;;;;;;6.53;2.45;;;19.30;72.70;;;;;;5015009;28;20053;-31
2023/05/26 03:54:07;;;;;;;4.85;2.05;;;;;;;;;;5013799;28;20049;-32
2023/05/26 03:56:34;;;;;;;3.95;1.90;;;19.40;72.90;;;;;;5013979;28;20053;-31
2023/05/26 03:59:02;;;;;;;5.05;2.50;;;19.60;72.70;;;;;;5014682;28;20073;-31
2023/05/26 04:01:29;;;;;;;4.57;2.10;;;19.20;61.20;;;;;;5014945;28;20054;-31
2023/05/26 04:03:57;;;;;;;5.20;2.00;;;19.40;54.10;;;;;;5011259;28;20129;-33
2023/05/26 04:06:24;;;;;;;5.25;2.50;;;;;;;;;;5014673;28;20462;-32
2023/05/26 04:08:51;;;;;;;4.72;2.10;;;19.40;72.70;;;;;;5014185;28;20510;-31
2023/05/26 04:11:17;;;;;;;7.32;2.45;;;19.10;72.10;;;;;;5014112;28;20060;-31
2023/05/26 04:13:44;;;;;;;6.07;2.40;;;18.80;57.80;;;;;;5014482;28;20129;-31
2023/05/26 04:16:11;;;;;;;4.53;1.90;;;20.00;72.80;;;;;;5013557;28;20144;-31
2023/05/26 04:18:40;;;;;;;6.22;2.33;;;19.30;72.50;;;;;;5014173;28;20067;-31
2023/05/26 04:21:08;;;;;;;3.90;1.98;;;20.40;63.20;;;;;;5013630;28;20050;-31
2023/05/26 04:23:34;;;;;;;5.88;2.72;;;19.90;64.20;;;;;;5013366;28;20068;-31
2023/05/26 04:26:03;;;;;;;4.80;2.55;;;20.00;55.10;;;;;;5014117;28;20108;-31
2023/05/26 04:28:29;;;;;;;6.50;2.20;;;19.10;55.00;;;;;;5014032;28;20054;-31
2023/05/26 04:30:56;;;;;;;5.90;2.40;;;;;;;;;;5014095;28;20121;-32
2023/05/26 04:33:23;;;;;;;4.25;2.10;;;19.60;72.00;;;;;;5013671;28;20053;-31
2023/05/26 04:35:51;;;;;;;5.95;2.47;;;;;;;;;;5013194;28;20215;-31
2023/05/26 04:38:20;;;;;;;6.53;2.20;;;19.50;72.40;;;;;;5013540;28;20082;-31
2023/05/26 04:40:48;;;;;;;5.18;2.00;;;;;;;;;;5014173;28;20054;-33
2023/05/26 04:43:15;;;;;;;4.93;1.90;;;;;;;;;;5012967;28;20538;-33
2023/05/26 04:45:43;;;;;;;5.70;2.22;;;19.70;72.20;;;;;;5013049;28;20057;-31
2023/05/26 04:48:10;;;;;;;5.45;2.20;;;19.50;71.90;;;;;;5013889;28;20133;-31
2023/05/26 04:50:38;;;;;;;4.90;2.35;;;19.30;71.80;;;;;;5013671;28;20125;-31
2023/05/26 04:53:05;;;;;;;4.57;1.75;;;19.30;72.20;;;;;;5013301;28;20053;-31
2023/05/26 04:55:35;;;;;;;3.75;2.03;;;19.90;66.40;;;;;;5013525;28;20133;-30
2023/05/26 04:58:02;;;;;;;6.43;2.55;;;20.20;70.60;;;;;;5012880;28;20129;-31
2023/05/26 05:00:31;;;;;;;5.22;1.90;;;21.00;72.50;;;;;;5012875;28;20042;-31
2023/05/26 05:02:58;;;;;;;5.00;2.17;;;;;;;;;;5012924;28;20050;-32
2023/05/26 05:05:25;;;;;;;7.93;2.33;;;19.00;71.30;;;;;;5012765;28;20057;-30
2023/05/26 05:07:52;;;;;;;4.35;2.08;;;19.80;63.50;;;;;;5013406;28;20049;-31
2023/05/26 05:10:19;;;;;;;5.35;2.10;;;20.20;71.60;;;;;;5012640;28;20659;-31
2023/05/26 05:12:47;;;;;;;4.85;2.10;;;20.10;53.50;;;;;;5010143;28;20481;-32
2023/05/26 05:15:14;;;;;;;5.45;1.95;;;;;;;;;;5012601;28;20489;-32
2023/05/26 05:17:41;;;;;;;4.25;1.80;;;20.30;71.30;;;;;;5013039;28;20060;-31
2023/05/26 05:20:08;;;;;;;4.70;1.83;;;20.30;53.30;;;;;;5012806;28;20142;-32
2023/05/26 05:22:35;;;;;;;6.05;2.80;;;20.30;71.00;;;;;;5012063;28;20050;-31
2023/05/26 05:25:02;;;;;;;4.55;2.10;;;20.70;71.40;;;;;;5013020;28;20129;-31
2023/05/26 05:27:29;;;;;;;6.53;2.25;;;;;;;;;;5013061;28;20056;-31
2023/05/26 05:29:57;;;;;;;5.05;2.28;;;20.90;70.90;;;;;;5012820;28;20046;-31
2023/05/26 05:32:24;;;;;;;6.80;2.47;;;20.50;71.00;;;;;;5011883;28;20054;-31
2023/05/26 05:34:50;;;;;;;5.05;1.90;;;19.90;56.00;;;;;;5012816;28;20053;-31
2023/05/26 05:37:17;;;;;;;4.03;1.80;;;20.80;64.50;;;;;;5009281;28;20042;-31
2023/05/26 05:39:44;;;;;;;5.40;2.00;;;21.70;62.90;;;;;;5012246;28;20428;-31
2023/05/26 05:42:11;;;;;;;4.05;2.00;;;;;;;;;;5012224;28;20128;-32
2023/05/26 05:44:38;;;;;;;4.55;1.90;;;21.30;70.90;;;;;;5012769;28;20051;-31
2023/05/26 05:47:06;;;;;;;5.63;2.10;;;20.50;52.80;;;;;;5012928;28;20579;-31
2023/05/26 05:49:33;;;;;;;5.28;2.15;;;;;;;;;;5010899;28;20125;-31
2023/05/26 05:52:00;;;;;;;4.85;2.10;;;21.40;71.10;;;;;;5009441;28;20483;-31
2023/05/26 05:54:27;;;;;;;5.60;1.95;;;;;;;;;;5011590;28;20038;-32
2023/05/26 05:56:54;;;;;;;4.03;1.92;;;21.30;55.40;;;;;;5011238;28;20064;-31
2023/05/26 05:59:21;;;;;;;4.40;2.10;;;20.10;69.70;;;;;;4994951;28;20422;-31
2023/05/26 06:01:48;;;;;;;5.22;2.10;;;20.90;57.60;;;;;;5011820;28;20049;-31
2023/05/26 06:04:16;;;;;;;5.28;2.05;;;21.00;69.70;;;;;;5012174;28;20570;-31
2023/05/26 06:06:42;;;;;;;4.03;1.92;;;21.50;67.50;;;;;;5012752;28;20056;-31
2023/05/26 06:09:09;;;;;;;5.78;2.15;;;21.10;70.20;;;;;;5012460;28;20129;-31
2023/05/26 06:11:36;;;;;;;3.63;1.88;;;21.30;58.10;;;;;;5012594;28;20052;-31
2023/05/26 06:14:02;;;;;;;3.88;1.70;;;21.30;69.10;;;;;;5012504;28;20137;-31
2023/05/26 06:16:29;;;;;;;4.53;2.10;;;22.40;70.30;;;;;;5012120;28;20050;-31
2023/05/26 06:18:56;;;;;;;5.05;1.92;;;;;;;;;;5012339;28;20158;-31
2023/05/26 06:21:24;;;;;;;4.80;1.80;;;21.30;69.20;;;;;;5012263;28;20053;-31
2023/05/26 06:23:52;;;;;;;6.97;1.88;;;21.50;69.70;;;;;;5011727;28;20132;-29
2023/05/26 06:26:19;;;;;;;4.93;2.05;;;21.20;69.10;;;;;;5012158;28;20144;-29
2023/05/26 06:28:46;;;;;;;5.93;2.15;;;21.50;62.90;;;;;;4992426;28;20050;-29
2023/05/26 06:31:13;;;;;;;5.80;1.98;;;;;;;;;;5000364;28;20129;-30
2023/05/26 06:33:39;;;;;;;4.35;1.83;;;22.10;69.80;;;;;;5005035;28;20128;-29
2023/05/26 06:36:07;;;;;;;5.15;2.00;;;21.70;51.70;;;;;;5011344;28;20121;-32
2023/05/26 06:38:35;;;;;;;4.72;2.05;;;21.60;68.80;;;;;;5011369;28;20054;-29
2023/05/26 06:41:02;;;;;;;5.05;1.83;;;22.20;70.00;;;;;;5011901;28;20555;-29
2023/05/26 06:43:29;;;;;;;6.05;2.10;;;;;;;;;;5011703;28;20054;-31
2023/05/26 06:45:55;;;;;;;3.80;1.88;;;22.20;69.90;;;;;;5011702;28;20054;-29
2023/05/26 06:48:22;;;;;;;5.40;1.90;;;22.20;66.00;;;;;;5011884;28;20410;-29
2023/05/26 06:50:49;;;;;;;3.63;1.75;;;21.60;66.30;;;;;;5011496;28;20052;-29
2023/05/26 06:53:16;;;;;;;4.18;2.00;;;22.00;69.20;;;;;;5011299;28;20129;-29
2023/05/26 06:55:44;;;;;;;5.25;2.00;;;21.10;68.60;;;;;;5011715;28;20434;-29
2023/05/26 06:58:11;;;;;;;4.82;1.92;;;;;;;;;;5011516;28;20057;-31
2023/05/26 07:00:38;;;;;;;3.95;1.77;;;;;;;;;;5011708;28;20056;-31
2023/05/26 07:03:05;;;;;;;5.82;2.08;;;22.10;68.80;;;;;;5011638;28;20137;-31
2023/05/26 07:05:31;;;;;;;4.97;2.08;;;22.40;57.00;;;;;;5011701;28;20132;-30
2023/05/26 07:07:58;;;;;;;4.68;1.85;;;21.90;68.60;;;;;;5005854;28;20128;-31
2023/05/26 07:10:25;;;;;;;4.57;1.98;;;21.70;69.30;;;;;;4999716;28;20515;-31
2023/05/26 07:12:53;;;;;;;6.13;1.83;;;21.80;67.40;;;;;;4995993;28;20058;-31
2023/05/26 07:15:20;;;;;;;4.68;2.00;;;21.30;65.80;;;;;;5005588;28;20064;-31
2023/05/26 07:17:47;;;;;;;4.97;1.90;;;20.70;68.10;;;;;;5015927;28;20054;-31
2023/05/26 07:20:14;;;;;;;4.82;1.95;;;;;;;;;;5015118;28;20046;-31
2023/05/26 07:22:40;;;;;;;4.85;1.85;;;21.50;62.20;;;;;;5013950;28;20077;-31
2023/05/26 07:25:08;;;;;;;4.70;2.05;;;22.60;69.20;;;;;;5014791;28;20067;-31
2023/05/26 07:27:34;;;;;;;3.53;1.70;;;21.30;68.50;;;;;;5015299;28;20566;-31
2023/05/26 07:30:02;;;;;;;3.38;1.63;;;21.40;69.10;;;;;;5015525;28;20125;-31
2023/05/26 07:32:29;;;;;;;3.85;1.85;;;21.30;68.60;;;;;;5015065;28;20144;-31
2023/05/26 07:34:56;;;;;;;3.95;1.92;;;;;;;;;;5014683;28;20112;-29
2023/05/26 07:37:23;;;;;;;5.22;1.85;;;21.70;68.70;;;;;;5012601;28;20577;-31
2023/05/26 07:39:50;;;;;;;4.15;2.20;;;;;;;;;;5012171;28;20134;-31
2023/05/26 07:42:17;;;;;;;4.10;1.83;;;22.00;69.00;;;;;;5014764;28;20136;-30
2023/05/26 07:44:43;;;;;;;5.30;1.83;;;20.60;68.40;;;;;;5014933;28;20513;-30
2023/05/26 07:47:11;;;;;;;3.05;1.58;;;21.30;69.00;;;;;;5014692;28;20129;-33
2023/05/26 07:49:39;;;;;;;4.28;1.90;;;21.40;68.80;;;;;;5011169;28;20549;-33
2023/05/26 07:52:05;;;;;;;3.80;2.00;;;21.70;69.10;;;;;;5011958;28;20128;-33
2023/05/26 07:54:32;;;;;;;4.15;1.73;;;21.30;69.30;;;;;;5014486;28;21803;-33
2023/05/26 07:56:59;;;;;;;3.97;1.83;;;21.20;65.00;;;;;;5014395;28;20417;-32
2023/05/26 07:59:26;;;;;;;4.82;2.17;;;21.80;68.90;;;;;;5014867;28;20049;-33
2023/05/26 08:01:53;;;;;;;5.53;2.00;;;;;;;;;;5014686;28;20144;-32
2023/05/26 08:04:21;;;;;;;3.75;1.90;;;21.30;68.60;;;;;;5014262;28;20144;-33
2023/05/26 08:06:48;;;;;;;5.45;2.13;;;21.20;68.60;;;;;;5013911;28;20072;-32
2023/05/26 08:09:15;;;;;;;3.60;1.70;;;22.40;69.40;;;;;;5014589;28;20046;-33
2023/05/26 08:11:42;;;;;;;5.88;2.33;;;20.50;69.30;;;;;;5014731;28;20054;-33
2023/05/26 08:14:08;;;;;;;4.72;1.88;;;21.30;69.10;;;;;;5014327;28;20121;-33
2023/05/26 08:16:35;;;;;;;4.82;2.00;;;21.50;70.00;;;;;;5014334;28;20049;-33
2023/05/26 08:19:02;;;;;;;4.72;2.17;;;21.60;65.40;;;;;;5013933;28;20675;-31
2023/05/26 08:21:31;;;;;;;5.15;2.13;;;21.00;69.60;;;;;;5012943;28;20056;-31
2023/05/26 08:23:58;;;;;;;5.63;1.95;;;;;;;;;;5014061;28;20430;-31
2023/05/26 08:26:25;;;;;;;5.13;2.10;;;20.70;69.20;;;;;;5013977;28;20085;-31
2023/05/26 08:28:51;;;;;;;3.58;1.67;;;22.20;69.80;;;;;;5014165;28;20133;-31
2023/05/26 08:31:18;;;;;;;5.82;2.10;;;20.90;57.70;;;;;;5006823;28;20064;-31
2023/05/26 08:33:45;;;;;;;6.22;2.10;;;21.50;69.40;;;;;;5004380;28;20057;-31
2023/05/26 08:36:12;;;;;;;5.45;1.80;;;21.70;57.90;;;;;;5002714;28;20140;-31
2023/05/26 08:38:41;;;;;;;3.78;1.90;;;20.60;69.20;;;;;;5013561;28;20077;-31
2023/05/26 08:41:08;;;;;;;5.45;2.00;;;;;;;;;;5013260;28;20128;-31
2023/05/26 08:43:38;;;;;;;6.82;2.22;;;20.80;58.20;;;;;;5001289;28;20081;-31
2023/05/26 08:46:05;;;;;;;5.68;1.80;;;21.00;56.40;;;;;;5001584;28;20512;-31
2023/05/26 08:48:32;;;;;;;7.32;2.17;;;21.40;70.20;;;;;;5002980;28;20456;-31
2023/05/26 08:50:59;;;;;;;5.07;1.90;;;;;;;;;;5005749;28;20042;-31
2023/05/26 08:53:26;;;;;;;3.58;1.88;;;21.50;69.40;;;;;;5011812;28;20054;-31
2023/05/26 08:55:54;;;;;;;5.18;1.88;;;21.10;70.00;;;;;;5013634;28;20125;-31
2023/05/26 08:58:20;;;;;;;3.35;1.98;;;20.90;69.10;;;;;;5013502;28;20050;-31
2023/05/26 09:00:47;;;;;;;4.88;2.00;;;20.70;57.70;;;;;;5013028;28;20046;-31
2023/05/26 09:03:14;;;;;;;4.03;2.03;;;21.40;69.90;;;;;;5008962;28;20057;-31
2023/05/26 09:05:40;;;;;;;4.22;1.75;;;21.00;69.00;;;;;;5003639;28;20410;-31
2023/05/26 09:08:09;;;;;;;3.47;1.75;;;21.10;54.30;;;;;;5011871;28;20132;-31
2023/05/26 09:10:36;;;;;;;5.57;2.08;;;21.00;68.90;;;;;;5011242;28;20192;-31
2023/05/26 09:13:05;;;;;;;3.45;1.70;;;21.50;69.30;;;;;;5012880;28;20049;-31
2023/05/26 09:15:32;;;;;;;4.03;1.90;;;21.40;66.40;;;;;;5012958;28;20060;-31
2023/05/26 09:18:05;;;;;;;4.18;1.92;;;20.40;68.70;;;;;;5013363;28;20050;-31
2023/05/26 09:20:32;;;;;;;5.00;1.98;;;;;;;;;;5012569;28;20603;-31
2023/05/26 09:22:59;;;;;;;5.35;2.58;;;21.10;69.00;;;;;;5012913;28;20216;-31
2023/05/26 09:25:29;;;;;;;4.65;1.85;;;21.30;52.00;;;;;;5013065;28;20060;-31
2023/05/26 09:28:00;;;;;;;6.40;2.08;;;20.90;68.90;;;;;;5012895;28;20136;-31
2023/05/26 09:30:30;;;;;;;3.78;1.70;;;21.30;51.90;;;;;;5013247;28;20136;-31
2023/05/26 09:32:57;;;;;;;6.57;2.03;;;21.00;55.20;;;;;;5012261;28;20080;-31
2023/05/26 09:35:25;;;;;;;4.65;2.08;;;;;;;;;;5012906;28;20050;-32
2023/05/26 09:37:51;;;;;;;2.92;1.75;;;21.60;62.00;;;;;;5012324;28;20050;-31
2023/05/26 09:40:20;;;;;;;3.83;1.70;;;21.40;51.90;;;;;;5012869;28;20517;-31
2023/05/26 09:42:48;;;;;;;4.88;1.70;;;21.50;69.20;;;;;;5012120;28;20132;-31
2023/05/26 09:45:16;;;;;;;3.85;1.70;;;21.20;69.10;;;;;;5012678;28;20056;-31
2023/05/26 09:47:44;;;;;;;4.55;1.80;;;21.50;51.80;;;;;;5012573;28;20137;-32
2023/05/26 09:50:11;;;;;;;4.68;2.28;;;22.20;52.20;;;;;;5012723;28;20054;-31
2023/05/26 09:52:38;;;;;;;4.38;1.90;;;21.70;69.50;;;;;;5012599;28;20053;-31
2023/05/26 09:55:05;;;;;;;4.60;2.00;;;21.50;51.70;;;;;;5012045;28;20058;-32
2023/05/26 09:57:32;;;;;;;3.55;1.73;;;21.70;69.20;;;;;;5012797;28;20056;-31
2023/05/26 10:00:00;;;;;;;4.70;1.90;;;;;;;;;;5012025;28;20132;-32
2023/05/26 10:02:27;;;;;;;3.75;1.83;;;;;;;;;;5012291;28;20077;-32
2023/05/26 10:04:55;;;;;;;3.95;1.90;;;20.80;51.20;;;;;;5004826;28;20056;-31
2023/05/26 10:07:22;;;;;;;4.20;2.00;;;21.20;69.30;;;;;;5002487;28;20134;-31
2023/05/26 10:09:51;;;;;;;3.72;1.52;;;20.80;68.30;;;;;;4993042;28;20058;-31
2023/05/26 10:12:17;;;;;;;3.63;1.92;;;21.30;68.20;;;;;;5011697;28;20053;-31
2023/05/26 10:14:44;;;;;;;4.38;1.73;;;20.80;67.50;;;;;;5012301;28;20056;-31
2023/05/26 10:17:11;;;;;;;4.63;1.80;;;;;;;;;;5011721;28;20125;-31
2023/05/26 10:19:38;;;;;;;3.83;1.63;;;21.80;69.50;;;;;;5011694;28;20085;-31
2023/05/26 10:22:10;;;;;;;4.82;1.75;;;21.60;51.50;;;;;;5010575;28;20054;-31
2023/05/26 10:24:39;;;;;;;4.47;1.88;;;21.90;69.70;;;;;;5011806;28;20045;-31
2023/05/26 10:27:07;;;;;;;5.72;1.80;;;21.60;51.50;;;;;;5012207;28;20149;-32
2023/05/26 10:29:37;;;;;;;4.38;1.83;;;21.30;66.30;;;;;;5012133;28;20046;-31
2023/05/26 10:32:05;;;;;;;4.55;1.83;;;;;;;;;;5012134;28;20111;-31
2023/05/26 10:34:38;;;;;;;5.28;2.08;;;21.40;69.40;;;;;;5011559;28;20053;-31
2023/05/26 10:37:14;;;;;;;3.92;1.80;;;21.40;68.80;;;;;;5010520;28;20057;-31
2023/05/26 10:39:41;;;;;;;5.80;1.77;;;21.70;69.10;;;;;;5009866;28;20054;-31
2023/05/26 10:42:16;;;;;;;4.50;2.00;;;21.60;51.50;;;;;;5006120;28;20131;-33
2023/05/26 10:44:43;;;;;;;4.80;2.00;;;22.20;62.40;;;;;;5002799;28;20046;-31
2023/05/26 10:47:14;;;;;;;6.38;1.85;;;21.50;68.70;;;;;;4997711;28;20129;-31
2023/05/26 10:49:40;;;;;;;3.78;1.70;;;21.70;64.00;;;;;;4997438;28;20128;-31
2023/05/26 10:52:12;;;;;;;6.68;1.67;;;21.70;69.60;;;;;;4992528;28;20081;-31
2023/05/26 10:54:40;;;;;;;2.50;1.63;;;22.70;56.20;;;;;;5003091;28;20046;-31
2023/05/26 10:57:07;;;;;;;5.00;1.70;;;22.00;56.90;;;;;;5011856;28;20430;-31
2023/05/26 10:59:36;;;;;;;5.10;1.80;;;21.60;51.50;;;;;;5011486;28;20567;-31
2023/05/26 11:02:04;;;;;;;3.63;1.67;;;21.90;54.60;;;;;;5011571;28;20052;-31
2023/05/26 11:04:40;;;;;;;6.50;2.28;;;21.60;51.60;;;;;;5011309;28;20060;-31
2023/05/26 11:07:15;;;;;;;5.28;1.92;;;21.90;62.60;;;;;;5010600;28;20054;-32
2023/05/26 11:09:55;;;;;;;4.07;1.60;;;21.80;62.50;;;;;;5011514;28;20396;-31
2023/05/26 11:12:21;;;;;;;3.40;1.52;;;21.80;66.50;;;;;;5011116;28;20337;-31
2023/05/26 11:14:48;;;;;;;4.00;1.75;;;21.50;68.70;;;;;;5011845;28;20057;-31
2023/05/26 11:17:15;;;;;;;3.03;1.50;;;;;;;;;;5011444;28;20060;-31
2023/05/26 11:19:42;;;;;;;3.70;1.90;;;21.20;68.50;;;;;;5010748;28;20137;-31
2023/05/26 11:22:10;;;;;;;4.13;1.75;;;21.60;51.70;;;;;;5010732;28;20492;-34
2023/05/26 11:24:37;;;;;;;4.43;1.80;;;;;;;;;;5011238;28;20137;-31
2023/05/26 11:27:06;;;;;;;3.58;1.92;;;21.90;62.40;;;;;;5011833;28;20088;-31
2023/05/26 11:29:33;;;;;;;3.97;2.05;;;21.40;69.60;;;;;;4998266;28;20078;-31
2023/05/26 11:32:00;;;;;;;3.53;1.73;;;;;;;;;;4996466;28;20049;-33
2023/05/26 11:34:26;;;;;;;5.93;1.73;;;21.80;69.20;;;;;;4995508;28;20046;-31
2023/05/26 11:36:54;;;;;;;3.60;1.58;;;21.60;68.70;;;;;;5003592;28;20048;-31
2023/05/26 11:39:21;;;;;;;4.93;1.63;;;21.50;69.20;;;;;;5011243;28;20129;-31
2023/05/26 11:41:48;;;;;;;3.53;1.70;;;;;;;;;;5011552;28;20054;-33
2023/05/26 11:44:16;;;;;;;5.70;1.90;;;21.50;51.70;;;;;;5011066;28;20153;-31
2023/05/26 11:46:46;;;;;;;3.88;1.88;;;21.70;55.50;;;;;;5011273;28;20050;-31
2023/05/26 11:49:13;;;;;;;3.97;1.83;;;;;;;;;;5011006;28;20073;-31
2023/05/26 11:51:45;;;;;;;4.90;1.95;;;21.30;51.60;;;;;;5011125;28;20049;-32
2023/05/26 11:54:12;;;;;;;4.00;1.95;;;21.70;54.90;;;;;;5011240;28;20054;-31
2023/05/26 11:56:39;;;;;;;5.38;1.77;;;22.20;66.40;;;;;;5014019;28;20133;-31
2023/05/26 11:59:05;;;;;;;3.95;1.70;;;22.60;69.40;;;;;;5014895;28;20053;-31
2023/05/26 12:01:33;;;;;;;4.07;1.60;;;21.50;51.90;;;;;;5013312;28;20042;-31
2023/05/26 12:04:00;;;;;;;3.22;1.55;;;21.50;68.80;;;;;;5008920;28;20041;-31
2023/05/26 12:06:28;;;;;;;3.53;1.70;;;21.60;69.30;;;;;;5008358;28;20046;-31
2023/05/26 12:08:56;;;;;;;4.07;2.00;;;21.50;51.90;;;;;;5003994;28;20119;-33
2023/05/26 12:11:23;;;;;;;3.67;1.80;;;21.50;51.90;;;;;;4995231;28;20050;-33
2023/05/26 12:13:55;;;;;;;6.55;1.90;;;21.10;68.90;;;;;;5005486;28;20414;-31
2023/05/26 12:16:24;;;;;;;3.20;1.67;;;22.00;69.60;;;;;;5014265;28;20049;-33
2023/05/26 12:18:56;;;;;;;3.97;1.88;;;21.10;63.50;;;;;;5013634;28;20078;-33
2023/05/26 12:21:23;;;;;;;4.35;1.70;;;;;;;;;;5014564;28;20046;-32
2023/05/26 12:23:50;;;;;;;4.75;1.80;;;21.30;69.80;;;;;;5013822;28;20137;-33
2023/05/26 12:26:22;;;;;;;4.47;1.88;;;21.40;51.90;;;;;;5013900;28;20144;-31
2023/05/26 12:29:09;;;;;;;3.42;1.55;;;21.30;53.40;;;;;;5013736;28;20075;-33
2023/05/26 12:31:40;;;;;;;4.78;1.55;;;20.50;68.70;;;;;;5013261;28;20510;-33
2023/05/26 12:34:09;;;;;;;4.20;1.80;;;21.40;52.10;;;;;;5013189;28;20054;-33
2023/05/26 12:36:36;;;;;;;4.22;1.90;;;;;;;;;;5012615;28;20134;-33
2023/05/26 12:39:02;;;;;;;4.40;2.10;;;21.10;69.80;;;;;;5013568;28;20049;-33
2023/05/26 12:41:29;;;;;;;5.68;1.80;;;21.60;54.30;;;;;;5013818;28;20046;-33
2023/05/26 12:43:56;;;;;;;5.05;1.92;;;21.10;56.30;;;;;;5013477;28;20578;-33
2023/05/26 12:46:24;;;;;;;5.22;1.80;;;;;;;;;;5013289;28;20129;-33
2023/05/26 12:48:51;;;;;;;5.47;1.83;;;21.80;69.60;;;;;;5013724;28;20077;-33
2023/05/26 12:51:19;;;;;;;4.95;2.20;;;21.50;56.10;;;;;;5013435;28;20079;-32
2023/05/26 12:53:46;;;;;;;6.50;2.10;;;21.90;56.10;;;;;;5013314;28;20124;-33
2023/05/26 12:56:13;;;;;;;6.63;2.22;;;;;;;;;;5012523;28;20128;-32
2023/05/26 12:58:41;;;;;;;8.13;2.65;;;;;;;;;;5007893;28;20060;-32
2023/05/26 13:01:09;;;;;;;7.20;2.03;;;;;;;;;;5012113;28;20120;-32
2023/05/26 13:03:36;;;;;;;4.85;2.22;;;21.40;64.10;;;;;;5011664;28;20050;-33
2023/05/26 13:06:03;;;;;;;8.05;2.40;;;21.00;52.70;;;;;;5012144;28;20415;-32
2023/05/26 13:08:31;;;;;;;7.28;2.30;;;21.90;69.80;;;;;;5011401;28;20104;-33